RYR284X EGSS-LIMJ
Flight info
| Callsign | RYR284X |
|---|---|
| Flight time | 1h 51m |
| Altitude | 23000 |
| Route | NUGBO M183 SILVA Q41 COWLY L612 MID/N0444F370 UL612 OGULO DCT OKASI DCT OKEKO DCT MOU DCT MADIV DCT MOKIP DCT TUFTA DCT GEVEA/N0438F330 DCT MOBLO DCT LURAG DCT OBUXA DCT TOP/N0365F190 M730 TESTO |
| Aircraft | B738/M-SDE2E3FGHIRWXY/LB1 |
Departure
| Time | 2026-04-26 11:23 |
|---|---|
| Airport | London Stansted Airport (EGSS) |
Arrival
| Time | 2026-04-26 13:14 |
|---|---|
| Airport | Genoa Cristoforo Colombo Airport (LIMJ) |
| Time | Latitude | Longitude | Altitude | Speed | Heading |
|---|---|---|---|---|---|
| 2026-04-26 10:37 | 51.89263 | 0.25916 | 352 ft | 0 kts | 43° |
| 2026-04-26 11:10 | 51.89253 | 0.25901 | 361 ft | 4 kts | 43° |
| 2026-04-26 11:10 | 51.89237 | 0.25878 | 359 ft | 4 kts | 27° |
| 2026-04-26 11:11 | 51.89218 | 0.25876 | 360 ft | 4 kts | 316° |
| 2026-04-26 11:11 | 51.89202 | 0.25903 | 361 ft | 1 kts | 313° |
| 2026-04-26 11:11 | 51.89201 | 0.25904 | 361 ft | 0 kts | 313° |
| 2026-04-26 11:15 | 51.89215 | 0.25881 | 360 ft | 6 kts | 313° |
| 2026-04-26 11:15 | 51.89258 | 0.25805 | 354 ft | 11 kts | 313° |
| 2026-04-26 11:15 | 51.89311 | 0.25711 | 351 ft | 11 kts | 313° |
| 2026-04-26 11:15 | 51.89359 | 0.25627 | 354 ft | 10 kts | 310° |
| 2026-04-26 11:16 | 51.89346 | 0.25533 | 351 ft | 9 kts | 225° |
| 2026-04-26 11:16 | 51.89297 | 0.25459 | 351 ft | 11 kts | 223° |
| 2026-04-26 11:16 | 51.89232 | 0.25362 | 355 ft | 15 kts | 222° |
| 2026-04-26 11:16 | 51.89149 | 0.25238 | 354 ft | 17 kts | 223° |
| 2026-04-26 11:17 | 51.89065 | 0.25111 | 351 ft | 16 kts | 223° |
| 2026-04-26 11:17 | 51.88984 | 0.24990 | 351 ft | 16 kts | 223° |
| 2026-04-26 11:17 | 51.88906 | 0.24873 | 355 ft | 15 kts | 223° |
| 2026-04-26 11:17 | 51.88832 | 0.24761 | 356 ft | 14 kts | 223° |
| 2026-04-26 11:18 | 51.88759 | 0.24653 | 350 ft | 15 kts | 223° |
| 2026-04-26 11:18 | 51.88672 | 0.24520 | 351 ft | 19 kts | 223° |
| 2026-04-26 11:18 | 51.88568 | 0.24365 | 344 ft | 21 kts | 223° |
| 2026-04-26 11:18 | 51.88462 | 0.24205 | 351 ft | 21 kts | 223° |
| 2026-04-26 11:19 | 51.88358 | 0.24049 | 344 ft | 20 kts | 223° |
| 2026-04-26 11:19 | 51.88257 | 0.23898 | 349 ft | 19 kts | 223° |
| 2026-04-26 11:19 | 51.88156 | 0.23748 | 338 ft | 20 kts | 222° |
| 2026-04-26 11:19 | 51.88055 | 0.23595 | 337 ft | 20 kts | 223° |
| 2026-04-26 11:20 | 51.87956 | 0.23447 | 337 ft | 19 kts | 223° |
| 2026-04-26 11:20 | 51.87893 | 0.23351 | 340 ft | 19 kts | 223° |
| 2026-04-26 11:20 | 51.87769 | 0.23168 | 339 ft | 16 kts | 222° |
| 2026-04-26 11:20 | 51.87735 | 0.23031 | 339 ft | 12 kts | 299° |
| 2026-04-26 11:21 | 51.87791 | 0.22931 | 337 ft | 12 kts | 313° |
| 2026-04-26 11:21 | 51.87851 | 0.22826 | 335 ft | 14 kts | 313° |
| 2026-04-26 11:21 | 51.87914 | 0.22716 | 330 ft | 12 kts | 313° |
| 2026-04-26 11:21 | 51.87952 | 0.22673 | 331 ft | 5 kts | 2° |
| 2026-04-26 11:22 | 51.87978 | 0.22696 | 330 ft | 0 kts | 42° |
| 2026-04-26 11:22 | 51.87984 | 0.22705 | 331 ft | 2 kts | 42° |
| 2026-04-26 11:22 | 51.88003 | 0.22733 | 328 ft | 9 kts | 43° |
| 2026-04-26 11:22 | 51.88212 | 0.23048 | 333 ft | 78 kts | 43° |
| 2026-04-26 11:23 | 51.88779 | 0.23897 | 338 ft | 142 kts | 43° |
| 2026-04-26 11:23 | 51.89564 | 0.25137 | 724 ft | 166 kts | 49° |
| 2026-04-26 11:23 | 51.90408 | 0.26422 | 1572 ft | 166 kts | 47° |
| 2026-04-26 11:23 | 51.91300 | 0.27755 | 2051 ft | 188 kts | 45° |
| 2026-04-26 11:24 | 51.92367 | 0.29220 | 2379 ft | 212 kts | 32° |
| 2026-04-26 11:24 | 51.93794 | 0.29983 | 2902 ft | 221 kts | 4° |
| 2026-04-26 11:24 | 51.95297 | 0.29537 | 3512 ft | 226 kts | 336° |
| 2026-04-26 11:24 | 51.96480 | 0.27882 | 4104 ft | 228 kts | 303° |
| 2026-04-26 11:25 | 51.97047 | 0.25398 | 4440 ft | 244 kts | 280° |
| 2026-04-26 11:25 | 51.97315 | 0.22642 | 4899 ft | 255 kts | 278° |
| 2026-04-26 11:25 | 51.97589 | 0.19665 | 5187 ft | 274 kts | 278° |
| 2026-04-26 11:25 | 51.97877 | 0.16593 | 6037 ft | 273 kts | 279° |
| 2026-04-26 11:26 | 51.98186 | 0.13556 | 6958 ft | 272 kts | 279° |
| 2026-04-26 11:26 | 51.98509 | 0.10526 | 7766 ft | 274 kts | 279° |
| 2026-04-26 11:26 | 51.98839 | 0.07466 | 8561 ft | 277 kts | 278° |
| 2026-04-26 11:26 | 51.98824 | 0.04361 | 9353 ft | 277 kts | 258° |
| 2026-04-26 11:27 | 51.98399 | 0.01282 | 10087 ft | 282 kts | 257° |
| 2026-04-26 11:27 | 51.97979 | -0.01818 | 10831 ft | 284 kts | 257° |
| 2026-04-26 11:27 | 51.97552 | -0.05068 | 11089 ft | 306 kts | 257° |
| 2026-04-26 11:27 | 51.97099 | -0.08557 | 11370 ft | 325 kts | 257° |
| 2026-04-26 11:28 | 51.96624 | -0.12203 | 11901 ft | 333 kts | 257° |
| 2026-04-26 11:28 | 51.96144 | -0.15887 | 12652 ft | 336 kts | 257° |
| 2026-04-26 11:28 | 51.95655 | -0.19627 | 13400 ft | 340 kts | 258° |
| 2026-04-26 11:28 | 51.95163 | -0.23388 | 14136 ft | 345 kts | 257° |
| 2026-04-26 11:29 | 51.94660 | -0.27224 | 14799 ft | 348 kts | 257° |
| 2026-04-26 11:29 | 51.94160 | -0.31030 | 15521 ft | 351 kts | 257° |
| 2026-04-26 11:29 | 51.93648 | -0.34915 | 16244 ft | 354 kts | 257° |
| 2026-04-26 11:29 | 51.93130 | -0.38841 | 16961 ft | 357 kts | 257° |
| 2026-04-26 11:30 | 51.92606 | -0.42793 | 17657 ft | 361 kts | 257° |
| 2026-04-26 11:30 | 51.92247 | -0.45496 | 18125 ft | 363 kts | 257° |
| 2026-04-26 11:30 | 51.91538 | -0.50826 | 18975 ft | 368 kts | 257° |
| 2026-04-26 11:30 | 51.90994 | -0.54899 | 19591 ft | 371 kts | 257° |
| 2026-04-26 11:31 | 51.90444 | -0.59007 | 20200 ft | 374 kts | 257° |
| 2026-04-26 11:31 | 51.89889 | -0.63136 | 20791 ft | 378 kts | 258° |
| 2026-04-26 11:31 | 51.89328 | -0.67299 | 21376 ft | 381 kts | 258° |
| 2026-04-26 11:31 | 51.88760 | -0.71508 | 21950 ft | 384 kts | 258° |
| 2026-04-26 11:32 | 51.88185 | -0.75750 | 22524 ft | 387 kts | 258° |
| 2026-04-26 11:32 | 51.87605 | -0.80021 | 23085 ft | 390 kts | 258° |
| 2026-04-26 11:32 | 51.87021 | -0.84321 | 23631 ft | 393 kts | 258° |
| 2026-04-26 11:32 | 51.86425 | -0.88675 | 24128 ft | 396 kts | 258° |
| 2026-04-26 11:33 | 51.85751 | -0.92997 | 24578 ft | 399 kts | 250° |
| 2026-04-26 11:33 | 51.84336 | -0.96878 | 25052 ft | 404 kts | 230° |
| 2026-04-26 11:33 | 51.82243 | -0.99841 | 25558 ft | 408 kts | 215° |
| 2026-04-26 11:33 | 51.79640 | -1.01867 | 26014 ft | 415 kts | 198° |
| 2026-04-26 11:34 | 51.76832 | -1.02760 | 26446 ft | 420 kts | 191° |
| 2026-04-26 11:34 | 51.73925 | -1.03428 | 26851 ft | 423 kts | 191° |
| 2026-04-26 11:34 | 51.71007 | -1.04096 | 27226 ft | 426 kts | 191° |
| 2026-04-26 11:34 | 51.68064 | -1.04823 | 27633 ft | 428 kts | 192° |
| 2026-04-26 11:35 | 51.65112 | -1.05530 | 28040 ft | 432 kts | 188° |
| 2026-04-26 11:35 | 51.62093 | -1.05299 | 28390 ft | 441 kts | 171° |
| 2026-04-26 11:35 | 51.59157 | -1.03720 | 28783 ft | 449 kts | 156° |
| 2026-04-26 11:35 | 51.57349 | -1.01959 | 29035 ft | 455 kts | 147° |
| 2026-04-26 11:36 | 51.53971 | -0.97923 | 29514 ft | 458 kts | 146° |
| 2026-04-26 11:36 | 51.51398 | -0.94861 | 29807 ft | 462 kts | 147° |
| 2026-04-26 11:36 | 51.48778 | -0.91834 | 30016 ft | 467 kts | 147° |
| 2026-04-26 11:36 | 51.46106 | -0.88847 | 30342 ft | 468 kts | 150° |
| 2026-04-26 11:37 | 51.43261 | -0.86376 | 30640 ft | 465 kts | 160° |
| 2026-04-26 11:37 | 51.40251 | -0.84453 | 30960 ft | 465 kts | 162° |
| 2026-04-26 11:37 | 51.37228 | -0.82595 | 31261 ft | 466 kts | 162° |
| 2026-04-26 11:37 | 51.34203 | -0.80732 | 31621 ft | 465 kts | 162° |
| 2026-04-26 11:38 | 51.31191 | -0.78854 | 32028 ft | 464 kts | 162° |
| 2026-04-26 11:38 | 51.28191 | -0.76960 | 32414 ft | 463 kts | 162° |
| 2026-04-26 11:38 | 51.25201 | -0.75061 | 32771 ft | 462 kts | 162° |
| 2026-04-26 11:38 | 51.22212 | -0.73157 | 33124 ft | 462 kts | 162° |
| 2026-04-26 11:39 | 51.19226 | -0.71256 | 33496 ft | 461 kts | 162° |
| 2026-04-26 11:39 | 51.16252 | -0.69366 | 33865 ft | 460 kts | 162° |
| 2026-04-26 11:39 | 51.13318 | -0.67505 | 34204 ft | 459 kts | 162° |
| 2026-04-26 11:39 | 51.10314 | -0.65604 | 34517 ft | 459 kts | 162° |
| 2026-04-26 11:40 | 51.07383 | -0.63752 | 34789 ft | 458 kts | 162° |
| 2026-04-26 11:40 | 51.04477 | -0.61639 | 35053 ft | 462 kts | 153° |
| 2026-04-26 11:40 | 51.01761 | -0.58885 | 35319 ft | 464 kts | 149° |
| 2026-04-26 11:40 | 50.99097 | -0.55985 | 35603 ft | 464 kts | 148° |
| 2026-04-26 11:41 | 50.96442 | -0.53070 | 35868 ft | 464 kts | 148° |
| 2026-04-26 11:42 | 50.77751 | -0.33150 | 37316 ft | 466 kts | 149° |
| 2026-04-26 11:43 | 50.72357 | -0.27469 | 37312 ft | 465 kts | 149° |
| 2026-04-26 11:43 | 50.67011 | -0.21854 | 37309 ft | 459 kts | 149° |
| 2026-04-26 11:44 | 50.61699 | -0.16294 | 37303 ft | 457 kts | 149° |
| 2026-04-26 11:44 | 50.56395 | -0.10755 | 37309 ft | 457 kts | 149° |
| 2026-04-26 11:45 | 50.51103 | -0.05239 | 37306 ft | 457 kts | 149° |
| 2026-04-26 11:45 | 50.45832 | 0.00238 | 37308 ft | 457 kts | 149° |
| 2026-04-26 11:46 | 50.40514 | 0.05763 | 37303 ft | 459 kts | 149° |
| 2026-04-26 11:46 | 50.35183 | 0.11297 | 37313 ft | 461 kts | 149° |
| 2026-04-26 11:47 | 50.29819 | 0.16861 | 37305 ft | 463 kts | 149° |
| 2026-04-26 11:47 | 50.24436 | 0.22435 | 37306 ft | 465 kts | 149° |
| 2026-04-26 11:48 | 50.19038 | 0.28003 | 37290 ft | 466 kts | 149° |
| 2026-04-26 11:48 | 50.13620 | 0.33563 | 37297 ft | 466 kts | 149° |
| 2026-04-26 11:49 | 50.08200 | 0.39111 | 37297 ft | 466 kts | 149° |
| 2026-04-26 11:49 | 50.02810 | 0.44616 | 37295 ft | 466 kts | 149° |
| 2026-04-26 11:50 | 49.97389 | 0.50139 | 37288 ft | 465 kts | 149° |
| 2026-04-26 11:50 | 49.91973 | 0.55643 | 37286 ft | 464 kts | 149° |
| 2026-04-26 11:51 | 49.86564 | 0.61125 | 37288 ft | 464 kts | 149° |
| 2026-04-26 11:51 | 49.81396 | 0.67130 | 37292 ft | 465 kts | 142° |
| 2026-04-26 11:52 | 49.77259 | 0.72457 | 37274 ft | 466 kts | 142° |
| 2026-04-26 11:52 | 49.71428 | 0.79923 | 37272 ft | 465 kts | 142° |
| 2026-04-26 11:53 | 49.67260 | 0.85164 | 37277 ft | 465 kts | 143° |
| 2026-04-26 11:54 | 49.59708 | 0.94581 | 37266 ft | 466 kts | 143° |
| 2026-04-26 11:54 | 49.54659 | 1.00853 | 37270 ft | 467 kts | 143° |
| 2026-04-26 11:55 | 49.49597 | 1.07128 | 37259 ft | 467 kts | 142° |
| 2026-04-26 11:55 | 49.44535 | 1.13390 | 37267 ft | 468 kts | 143° |
| 2026-04-26 11:56 | 49.39454 | 1.19656 | 37268 ft | 468 kts | 143° |
| 2026-04-26 11:56 | 49.34363 | 1.25915 | 37267 ft | 469 kts | 143° |
| 2026-04-26 11:57 | 49.29266 | 1.32168 | 37258 ft | 469 kts | 143° |
| 2026-04-26 11:57 | 49.24193 | 1.38378 | 37265 ft | 470 kts | 142° |
| 2026-04-26 11:58 | 49.19086 | 1.44611 | 37264 ft | 470 kts | 142° |
| 2026-04-26 11:58 | 49.13973 | 1.50836 | 37269 ft | 469 kts | 142° |
| 2026-04-26 11:59 | 49.08858 | 1.57046 | 37263 ft | 469 kts | 142° |
| 2026-04-26 11:59 | 49.03744 | 1.63238 | 37254 ft | 469 kts | 142° |
| 2026-04-26 12:00 | 48.98633 | 1.69410 | 37257 ft | 469 kts | 142° |
| 2026-04-26 12:00 | 48.93522 | 1.75565 | 37266 ft | 468 kts | 142° |
| 2026-04-26 12:01 | 48.88415 | 1.81698 | 37257 ft | 469 kts | 142° |
| 2026-04-26 12:01 | 48.83289 | 1.87839 | 37261 ft | 469 kts | 142° |
| 2026-04-26 12:02 | 48.78169 | 1.93957 | 37265 ft | 469 kts | 142° |
| 2026-04-26 12:02 | 48.73041 | 2.00067 | 37266 ft | 469 kts | 142° |
| 2026-04-26 12:03 | 48.67946 | 2.06122 | 37268 ft | 469 kts | 142° |
| 2026-04-26 12:03 | 48.62810 | 2.12212 | 37251 ft | 469 kts | 142° |
| 2026-04-26 12:04 | 48.57677 | 2.18282 | 37262 ft | 469 kts | 142° |
| 2026-04-26 12:04 | 48.52886 | 2.24976 | 37263 ft | 469 kts | 134° |
| 2026-04-26 12:05 | 48.48337 | 2.32059 | 37235 ft | 470 kts | 134° |
| 2026-04-26 12:05 | 48.43758 | 2.39089 | 37237 ft | 470 kts | 135° |
| 2026-04-26 12:06 | 48.39132 | 2.46064 | 37228 ft | 470 kts | 135° |
| 2026-04-26 12:06 | 48.34502 | 2.53012 | 37236 ft | 470 kts | 135° |
| 2026-04-26 12:07 | 48.29850 | 2.59934 | 37235 ft | 471 kts | 138° |
| 2026-04-26 12:07 | 48.24420 | 2.65335 | 37230 ft | 469 kts | 157° |
| 2026-04-26 12:08 | 48.18480 | 2.69365 | 37210 ft | 469 kts | 153° |
| 2026-04-26 12:08 | 48.12782 | 2.74145 | 37224 ft | 469 kts | 151° |
| 2026-04-26 12:09 | 48.07069 | 2.78717 | 37224 ft | 468 kts | 156° |
| 2026-04-26 12:09 | 48.01088 | 2.82575 | 37222 ft | 468 kts | 159° |
| 2026-04-26 12:10 | 47.95064 | 2.86280 | 37221 ft | 468 kts | 158° |
| 2026-04-26 12:10 | 47.89063 | 2.90032 | 37219 ft | 468 kts | 158° |
| 2026-04-26 12:11 | 47.83061 | 2.93827 | 37209 ft | 468 kts | 158° |
| 2026-04-26 12:11 | 47.77063 | 2.97619 | 37221 ft | 468 kts | 158° |
| 2026-04-26 12:12 | 47.71073 | 3.01394 | 37209 ft | 467 kts | 158° |
| 2026-04-26 12:12 | 47.65085 | 3.05157 | 37206 ft | 467 kts | 158° |
| 2026-04-26 12:13 | 47.59140 | 3.08884 | 37198 ft | 467 kts | 158° |
| 2026-04-26 12:13 | 47.53155 | 3.12626 | 37200 ft | 466 kts | 158° |
| 2026-04-26 12:14 | 47.47180 | 3.16346 | 37206 ft | 466 kts | 158° |
| 2026-04-26 12:14 | 47.41198 | 3.20061 | 37200 ft | 466 kts | 158° |
| 2026-04-26 12:15 | 47.35223 | 3.23764 | 37198 ft | 466 kts | 158° |
| 2026-04-26 12:15 | 47.29247 | 3.27460 | 37189 ft | 466 kts | 158° |
| 2026-04-26 12:16 | 47.23275 | 3.31144 | 37209 ft | 465 kts | 158° |
| 2026-04-26 12:16 | 47.17337 | 3.34799 | 37192 ft | 466 kts | 158° |
| 2026-04-26 12:17 | 47.11353 | 3.38472 | 37190 ft | 466 kts | 158° |
| 2026-04-26 12:17 | 47.05381 | 3.42131 | 37200 ft | 465 kts | 158° |
| 2026-04-26 12:18 | 46.99400 | 3.45784 | 37202 ft | 465 kts | 158° |
| 2026-04-26 12:18 | 46.93428 | 3.49424 | 37201 ft | 465 kts | 158° |
| 2026-04-26 12:19 | 46.87459 | 3.53054 | 37193 ft | 465 kts | 158° |
| 2026-04-26 12:19 | 46.81490 | 3.56676 | 37188 ft | 464 kts | 158° |
| 2026-04-26 12:20 | 46.75525 | 3.60293 | 37184 ft | 464 kts | 156° |
| 2026-04-26 12:20 | 46.72792 | 3.62765 | 37172 ft | 462 kts | 136° |
| 2026-04-26 12:20 | 46.70717 | 3.66302 | 37178 ft | 460 kts | 121° |
| 2026-04-26 12:20 | 46.69342 | 3.70470 | 37201 ft | 455 kts | 105° |
| 2026-04-26 12:21 | 46.68541 | 3.74927 | 37185 ft | 455 kts | 101° |
| 2026-04-26 12:21 | 46.67143 | 3.83915 | 37185 ft | 456 kts | 101° |
| 2026-04-26 12:22 | 46.65626 | 3.92890 | 37187 ft | 457 kts | 102° |
| 2026-04-26 12:22 | 46.64073 | 4.01815 | 37187 ft | 458 kts | 102° |
| 2026-04-26 12:23 | 46.62510 | 4.10813 | 37188 ft | 459 kts | 103° |
| 2026-04-26 12:23 | 46.60938 | 4.19842 | 37186 ft | 460 kts | 103° |
| 2026-04-26 12:24 | 46.59357 | 4.28871 | 37181 ft | 461 kts | 103° |
| 2026-04-26 12:24 | 46.57766 | 4.37907 | 37181 ft | 461 kts | 103° |
| 2026-04-26 12:25 | 46.55368 | 4.51441 | 37179 ft | 461 kts | 103° |
| 2026-04-26 12:25 | 46.53761 | 4.60460 | 37174 ft | 461 kts | 103° |
| 2026-04-26 12:26 | 46.52147 | 4.69472 | 37162 ft | 460 kts | 103° |
| 2026-04-26 12:26 | 46.50539 | 4.78402 | 37168 ft | 460 kts | 103° |
| 2026-04-26 12:27 | 46.48916 | 4.87368 | 37162 ft | 460 kts | 104° |
| 2026-04-26 12:27 | 46.47287 | 4.96337 | 37163 ft | 459 kts | 104° |
| 2026-04-26 12:28 | 46.45656 | 5.05278 | 37150 ft | 459 kts | 104° |
| 2026-04-26 12:28 | 46.44012 | 5.14206 | 37156 ft | 458 kts | 104° |
| 2026-04-26 12:29 | 46.42351 | 5.23127 | 37164 ft | 458 kts | 105° |
| 2026-04-26 12:30 | 46.39857 | 5.36471 | 37165 ft | 458 kts | 105° |
| 2026-04-26 12:30 | 46.38185 | 5.45385 | 37164 ft | 458 kts | 105° |
| 2026-04-26 12:31 | 46.35703 | 5.58740 | 37164 ft | 458 kts | 105° |
| 2026-04-26 12:31 | 46.34040 | 5.67646 | 37162 ft | 458 kts | 105° |
| 2026-04-26 12:32 | 46.32365 | 5.76564 | 37159 ft | 459 kts | 105° |
| 2026-04-26 12:33 | 46.29848 | 5.89883 | 37163 ft | 460 kts | 105° |
| 2026-04-26 12:33 | 46.28150 | 5.98820 | 37159 ft | 460 kts | 105° |
| 2026-04-26 12:34 | 46.26412 | 6.07739 | 37158 ft | 461 kts | 110° |
| 2026-04-26 12:34 | 46.25105 | 6.11946 | 37155 ft | 460 kts | 121° |
| 2026-04-26 12:34 | 46.23330 | 6.15783 | 37162 ft | 458 kts | 130° |
| 2026-04-26 12:35 | 46.18831 | 6.22241 | 37155 ft | 457 kts | 139° |
| 2026-04-26 12:35 | 46.14118 | 6.28399 | 37159 ft | 457 kts | 139° |
| 2026-04-26 12:36 | 46.09420 | 6.34604 | 37148 ft | 459 kts | 139° |
| 2026-04-26 12:36 | 46.04730 | 6.40853 | 37152 ft | 459 kts | 139° |
| 2026-04-26 12:37 | 46.00073 | 6.47057 | 37143 ft | 460 kts | 139° |
| 2026-04-26 12:37 | 45.95368 | 6.53308 | 37148 ft | 459 kts | 139° |
| 2026-04-26 12:38 | 45.90659 | 6.59546 | 37146 ft | 459 kts | 139° |
| 2026-04-26 12:38 | 45.85967 | 6.65749 | 37144 ft | 459 kts | 139° |
| 2026-04-26 12:39 | 45.81258 | 6.71959 | 37143 ft | 459 kts | 139° |
| 2026-04-26 12:39 | 45.77333 | 6.77095 | 37153 ft | 459 kts | 140° |
| 2026-04-26 12:40 | 45.71841 | 6.84239 | 37142 ft | 458 kts | 139° |
| 2026-04-26 12:40 | 45.67123 | 6.90368 | 37161 ft | 457 kts | 140° |
| 2026-04-26 12:41 | 45.62411 | 6.96477 | 37170 ft | 457 kts | 140° |
| 2026-04-26 12:41 | 45.58463 | 7.01589 | 37159 ft | 457 kts | 140° |
| 2026-04-26 12:42 | 45.53806 | 7.07658 | 37150 ft | 457 kts | 136° |
| 2026-04-26 12:42 | 45.49999 | 7.14946 | 37180 ft | 460 kts | 123° |
| 2026-04-26 12:43 | 45.46695 | 7.22758 | 37161 ft | 460 kts | 122° |
| 2026-04-26 12:43 | 45.43311 | 7.30525 | 36654 ft | 465 kts | 124° |
| 2026-04-26 12:43 | 45.41553 | 7.34370 | 36120 ft | 461 kts | 129° |
| 2026-04-26 12:44 | 45.39478 | 7.37818 | 35584 ft | 457 kts | 138° |
| 2026-04-26 12:44 | 45.37082 | 7.40730 | 35169 ft | 449 kts | 147° |
| 2026-04-26 12:44 | 45.34563 | 7.43302 | 34766 ft | 445 kts | 148° |
| 2026-04-26 12:44 | 45.32045 | 7.45840 | 34316 ft | 441 kts | 148° |
| 2026-04-26 12:45 | 45.29555 | 7.48355 | 33882 ft | 438 kts | 148° |
| 2026-04-26 12:45 | 45.27085 | 7.50865 | 33371 ft | 435 kts | 147° |
| 2026-04-26 12:45 | 45.24642 | 7.53362 | 32969 ft | 430 kts | 147° |
| 2026-04-26 12:45 | 45.22222 | 7.55843 | 32542 ft | 427 kts | 147° |
| 2026-04-26 12:46 | 45.19832 | 7.58298 | 32157 ft | 423 kts | 147° |
| 2026-04-26 12:46 | 45.17456 | 7.60737 | 31737 ft | 420 kts | 147° |
| 2026-04-26 12:46 | 45.15096 | 7.63157 | 31342 ft | 417 kts | 147° |
| 2026-04-26 12:46 | 45.12751 | 7.65560 | 30934 ft | 414 kts | 147° |
| 2026-04-26 12:47 | 45.10423 | 7.67941 | 30554 ft | 411 kts | 146° |
| 2026-04-26 12:47 | 45.08112 | 7.70303 | 30161 ft | 409 kts | 146° |
| 2026-04-26 12:47 | 45.05842 | 7.72622 | 29720 ft | 406 kts | 146° |
| 2026-04-26 12:47 | 45.03563 | 7.74946 | 29341 ft | 406 kts | 146° |
| 2026-04-26 12:48 | 45.01252 | 7.77301 | 28903 ft | 409 kts | 146° |
| 2026-04-26 12:48 | 44.98955 | 7.79641 | 28492 ft | 405 kts | 146° |
| 2026-04-26 12:48 | 44.96680 | 7.81955 | 28073 ft | 402 kts | 146° |
| 2026-04-26 12:48 | 44.94436 | 7.84271 | 27680 ft | 398 kts | 142° |
| 2026-04-26 12:49 | 44.92443 | 7.86988 | 27290 ft | 397 kts | 132° |
| 2026-04-26 12:49 | 44.90820 | 7.90116 | 26882 ft | 396 kts | 122° |
| 2026-04-26 12:49 | 44.89454 | 7.93471 | 26499 ft | 393 kts | 121° |
| 2026-04-26 12:49 | 44.88124 | 7.96832 | 26107 ft | 391 kts | 120° |
| 2026-04-26 12:50 | 44.86804 | 8.00176 | 25723 ft | 388 kts | 121° |
| 2026-04-26 12:50 | 44.85490 | 8.03486 | 25333 ft | 386 kts | 121° |
| 2026-04-26 12:50 | 44.84173 | 8.06778 | 24951 ft | 384 kts | 121° |
| 2026-04-26 12:50 | 44.82857 | 8.10046 | 24574 ft | 383 kts | 121° |
| 2026-04-26 12:51 | 44.81543 | 8.13294 | 24199 ft | 381 kts | 121° |
| 2026-04-26 12:51 | 44.80228 | 8.16535 | 23821 ft | 381 kts | 121° |
| 2026-04-26 12:51 | 44.78909 | 8.19777 | 23364 ft | 381 kts | 121° |
| 2026-04-26 12:51 | 44.77597 | 8.22999 | 22951 ft | 379 kts | 121° |
| 2026-04-26 12:52 | 44.76290 | 8.26206 | 22555 ft | 376 kts | 121° |
| 2026-04-26 12:52 | 44.74994 | 8.29382 | 22169 ft | 373 kts | 121° |
| 2026-04-26 12:52 | 44.73704 | 8.32539 | 21796 ft | 370 kts | 121° |
| 2026-04-26 12:52 | 44.72426 | 8.35663 | 21421 ft | 367 kts | 121° |
| 2026-04-26 12:53 | 44.71151 | 8.38777 | 21025 ft | 365 kts | 121° |
| 2026-04-26 12:53 | 44.69888 | 8.41859 | 20667 ft | 363 kts | 121° |
| 2026-04-26 12:53 | 44.68630 | 8.44923 | 20305 ft | 361 kts | 121° |
| 2026-04-26 12:53 | 44.67374 | 8.47982 | 19933 ft | 359 kts | 121° |
| 2026-04-26 12:54 | 44.66127 | 8.51013 | 19577 ft | 358 kts | 121° |
| 2026-04-26 12:54 | 44.64903 | 8.53988 | 19214 ft | 356 kts | 121° |
| 2026-04-26 12:54 | 44.63663 | 8.56999 | 18859 ft | 355 kts | 121° |
| 2026-04-26 12:54 | 44.62428 | 8.59995 | 18492 ft | 354 kts | 121° |
| 2026-04-26 12:55 | 44.61183 | 8.63009 | 18073 ft | 353 kts | 120° |
| 2026-04-26 12:55 | 44.59967 | 8.65949 | 17682 ft | 351 kts | 120° |
| 2026-04-26 12:55 | 44.58747 | 8.68904 | 17303 ft | 349 kts | 120° |
| 2026-04-26 12:55 | 44.57540 | 8.71833 | 16936 ft | 346 kts | 120° |
| 2026-04-26 12:56 | 44.56336 | 8.74752 | 16570 ft | 344 kts | 120° |
| 2026-04-26 12:56 | 44.55143 | 8.77645 | 16221 ft | 342 kts | 120° |
| 2026-04-26 12:56 | 44.53957 | 8.80519 | 15852 ft | 340 kts | 120° |
| 2026-04-26 12:56 | 44.52776 | 8.83377 | 15497 ft | 338 kts | 120° |
| 2026-04-26 12:57 | 44.51599 | 8.86221 | 15141 ft | 336 kts | 119° |
| 2026-04-26 12:57 | 44.50427 | 8.89047 | 14790 ft | 334 kts | 119° |
| 2026-04-26 12:57 | 44.49262 | 8.91854 | 14432 ft | 333 kts | 120° |
| 2026-04-26 12:58 | 44.46943 | 8.97431 | 13690 ft | 330 kts | 119° |
| 2026-04-26 12:58 | 44.45793 | 9.00194 | 13303 ft | 328 kts | 119° |
| 2026-04-26 12:58 | 44.44647 | 9.02943 | 12933 ft | 326 kts | 120° |
| 2026-04-26 12:58 | 44.43382 | 9.05547 | 12557 ft | 325 kts | 134° |
| 2026-04-26 12:59 | 44.41510 | 9.07255 | 12233 ft | 322 kts | 159° |
| 2026-04-26 12:59 | 44.39330 | 9.07842 | 11890 ft | 320 kts | 180° |
| 2026-04-26 12:59 | 44.37122 | 9.07599 | 11655 ft | 315 kts | 186° |
| 2026-04-26 12:59 | 44.34974 | 9.07271 | 11515 ft | 306 kts | 185° |
| 2026-04-26 13:00 | 44.32908 | 9.06969 | 11378 ft | 299 kts | 185° |
| 2026-04-26 13:00 | 44.30868 | 9.06686 | 11250 ft | 291 kts | 184° |
| 2026-04-26 13:00 | 44.28895 | 9.06893 | 11108 ft | 282 kts | 160° |
| 2026-04-26 13:00 | 44.27204 | 9.08119 | 11109 ft | 268 kts | 144° |
| 2026-04-26 13:01 | 44.25733 | 9.09663 | 11104 ft | 261 kts | 141° |
| 2026-04-26 13:01 | 44.24321 | 9.11212 | 11043 ft | 256 kts | 141° |
| 2026-04-26 13:01 | 44.22919 | 9.12733 | 10796 ft | 255 kts | 141° |
| 2026-04-26 13:01 | 44.21513 | 9.14250 | 10530 ft | 255 kts | 141° |
| 2026-04-26 13:02 | 44.20107 | 9.15754 | 10292 ft | 254 kts | 141° |
| 2026-04-26 13:02 | 44.18702 | 9.17246 | 10067 ft | 253 kts | 142° |
| 2026-04-26 13:02 | 44.17302 | 9.18728 | 9814 ft | 252 kts | 142° |
| 2026-04-26 13:02 | 44.15907 | 9.20203 | 9554 ft | 251 kts | 142° |
| 2026-04-26 13:03 | 44.14516 | 9.21673 | 9302 ft | 250 kts | 142° |
| 2026-04-26 13:03 | 44.13131 | 9.23135 | 9049 ft | 250 kts | 142° |
| 2026-04-26 13:03 | 44.11751 | 9.24590 | 8801 ft | 249 kts | 141° |
| 2026-04-26 13:03 | 44.10594 | 9.26340 | 8505 ft | 247 kts | 114° |
| 2026-04-26 13:04 | 44.10261 | 9.28639 | 8253 ft | 245 kts | 84° |
| 2026-04-26 13:04 | 44.10740 | 9.30885 | 7997 ft | 244 kts | 60° |
| 2026-04-26 13:04 | 44.11696 | 9.32827 | 7747 ft | 243 kts | 53° |
| 2026-04-26 13:04 | 44.12729 | 9.34684 | 7501 ft | 243 kts | 52° |
| 2026-04-26 13:05 | 44.13942 | 9.36284 | 7314 ft | 241 kts | 28° |
| 2026-04-26 13:05 | 44.15558 | 9.36836 | 7200 ft | 242 kts | 359° |
| 2026-04-26 13:05 | 44.17185 | 9.36262 | 7086 ft | 245 kts | 332° |
| 2026-04-26 13:05 | 44.18608 | 9.34934 | 6991 ft | 248 kts | 324° |
| 2026-04-26 13:06 | 44.19984 | 9.33457 | 6839 ft | 252 kts | 323° |
| 2026-04-26 13:06 | 44.21374 | 9.31957 | 6648 ft | 252 kts | 323° |
| 2026-04-26 13:06 | 44.22752 | 9.30465 | 6442 ft | 249 kts | 323° |
| 2026-04-26 13:06 | 44.24121 | 9.29000 | 6214 ft | 247 kts | 325° |
| 2026-04-26 13:07 | 44.25462 | 9.27576 | 6034 ft | 242 kts | 324° |
| 2026-04-26 13:07 | 44.26792 | 9.26165 | 5973 ft | 232 kts | 324° |
| 2026-04-26 13:07 | 44.28029 | 9.24850 | 5982 ft | 216 kts | 324° |
| 2026-04-26 13:07 | 44.29190 | 9.23622 | 5900 ft | 203 kts | 324° |
| 2026-04-26 13:08 | 44.30302 | 9.22447 | 5666 ft | 200 kts | 324° |
| 2026-04-26 13:08 | 44.31410 | 9.21277 | 5335 ft | 201 kts | 324° |
| 2026-04-26 13:08 | 44.32506 | 9.20119 | 5049 ft | 201 kts | 325° |
| 2026-04-26 13:08 | 44.33534 | 9.18805 | 4766 ft | 201 kts | 303° |
| 2026-04-26 13:09 | 44.34050 | 9.17008 | 4487 ft | 199 kts | 288° |
| 2026-04-26 13:09 | 44.34486 | 9.15160 | 4200 ft | 196 kts | 288° |
| 2026-04-26 13:09 | 44.34888 | 9.13401 | 4104 ft | 182 kts | 288° |
| 2026-04-26 13:09 | 44.35259 | 9.11719 | 3976 ft | 187 kts | 287° |
| 2026-04-26 13:10 | 44.35640 | 9.09964 | 3748 ft | 190 kts | 286° |
| 2026-04-26 13:10 | 44.36024 | 9.08187 | 3489 ft | 192 kts | 285° |
| 2026-04-26 13:10 | 44.36411 | 9.06401 | 3227 ft | 192 kts | 284° |
| 2026-04-26 13:10 | 44.36796 | 9.04621 | 2951 ft | 189 kts | 284° |
| 2026-04-26 13:11 | 44.37174 | 9.02877 | 2697 ft | 186 kts | 283° |
| 2026-04-26 13:11 | 44.37563 | 9.01162 | 2438 ft | 184 kts | 285° |
| 2026-04-26 13:11 | 44.37914 | 8.99482 | 2163 ft | 176 kts | 280° |
| 2026-04-26 13:11 | 44.38243 | 8.97888 | 1962 ft | 163 kts | 283° |
| 2026-04-26 13:12 | 44.38571 | 8.96435 | 1698 ft | 152 kts | 285° |
| 2026-04-26 13:12 | 44.38878 | 8.95033 | 1483 ft | 151 kts | 282° |
| 2026-04-26 13:12 | 44.39187 | 8.93609 | 1334 ft | 153 kts | 284° |
| 2026-04-26 13:12 | 44.39511 | 8.92177 | 1111 ft | 155 kts | 282° |
| 2026-04-26 13:13 | 44.39838 | 8.90743 | 868 ft | 155 kts | 284° |
| 2026-04-26 13:13 | 44.40192 | 8.89319 | 641 ft | 154 kts | 282° |
| 2026-04-26 13:13 | 44.40465 | 8.87905 | 395 ft | 148 kts | 283° |
| 2026-04-26 13:13 | 44.40735 | 8.86534 | 174 ft | 144 kts | 282° |
| 2026-04-26 13:14 | 44.40995 | 8.85218 | 20 ft | 134 kts | 283° |
| 2026-04-26 13:14 | 44.41199 | 8.84165 | 23 ft | 83 kts | 286° |
| 2026-04-26 13:14 | 44.41296 | 8.83670 | 19 ft | 34 kts | 285° |
| 2026-04-26 13:14 | 44.41356 | 8.83364 | 20 ft | 31 kts | 285° |
| 2026-04-26 13:15 | 44.41394 | 8.83200 | 20 ft | 13 kts | 300° |
| 2026-04-26 13:15 | 44.41454 | 8.83113 | 20 ft | 12 kts | 319° |
| 2026-04-26 13:15 | 44.41526 | 8.83102 | 21 ft | 11 kts | 34° |
| 2026-04-26 13:15 | 44.41545 | 8.83166 | 21 ft | 11 kts | 91° |
| 2026-04-26 13:16 | 44.41521 | 8.83303 | 19 ft | 11 kts | 105° |
| 2026-04-26 13:16 | 44.41501 | 8.83403 | 19 ft | 10 kts | 105° |
| 2026-04-26 13:16 | 44.41482 | 8.83499 | 19 ft | 10 kts | 105° |
| 2026-04-26 13:16 | 44.41464 | 8.83593 | 19 ft | 10 kts | 105° |
| 2026-04-26 13:17 | 44.41429 | 8.83774 | 19 ft | 9 kts | 105° |
| 2026-04-26 13:17 | 44.41412 | 8.83860 | 20 ft | 9 kts | 105° |
| 2026-04-26 13:18 | 44.41378 | 8.84026 | 19 ft | 9 kts | 105° |
| 2026-04-26 13:18 | 44.41363 | 8.84106 | 19 ft | 8 kts | 103° |
| 2026-04-26 13:18 | 44.41324 | 8.84310 | 20 ft | 13 kts | 106° |
| 2026-04-26 13:19 | 44.41328 | 8.84429 | 20 ft | 13 kts | 58° |
| 2026-04-26 13:19 | 44.41380 | 8.84525 | 19 ft | 12 kts | 52° |
| 2026-04-26 13:19 | 44.41430 | 8.84617 | 19 ft | 12 kts | 52° |
| 2026-04-26 13:19 | 44.41480 | 8.84709 | 19 ft | 12 kts | 52° |
| 2026-04-26 13:20 | 44.41530 | 8.84798 | 19 ft | 11 kts | 52° |
| 2026-04-26 13:20 | 44.41569 | 8.84870 | 19 ft | 8 kts | 52° |
| 2026-04-26 13:20 | 44.41607 | 8.84929 | 19 ft | 8 kts | 46° |
| 2026-04-26 13:20 | 44.41638 | 8.84983 | 19 ft | 6 kts | 69° |
| 2026-04-26 13:21 | 44.41617 | 8.85015 | 19 ft | 4 kts | 172° |
| 2026-04-26 13:21 | 44.41600 | 8.85008 | 19 ft | 3 kts | 199° |
| 2026-04-26 13:21 | 44.41592 | 8.85005 | 19 ft | 0 kts | 194° |